AirNav   TITAN Aviation Fuels
 
 1243 users online  

Y55 Crandon/Steve Conway Municipal Airport
Crandon, Wisconsin, USA

GOING TO CRANDON?


FAA INFORMATION EFFECTIVE 04 NOVEMBER 2021

Location

FAA Identifier: Y55
Lat/Long: 45-31-21.5340N 088-55-42.3743W
45-31.358900N 088-55.706238W
45.5226483,-88.9284373
(estimated)
Elevation: 1650 ft. / 502.9 m (surveyed)
Variation: 03W (2015)
From city: 3 miles SW of CRANDON, WI
Time zone: UTC -5 (UTC -6 during Standard Time)
Zip code: 54520

Airport Operations

Airport use: Open to the public
Activation date: 09/1958
Control tower: no
ARTCC: MINNEAPOLIS CENTER
FSS: GREEN BAY FLIGHT SERVICE STATION
NOTAMs facility: GRB (NOTAM-D service available)
Attendance: UNATNDD
Wind indicator: lighted
Segmented circle: no
Lights: MIRL RY 12/30 PRESET ON LOW INTST; TO INCR INTST & ACTVT - CTAF.
Beacon: white-green (lighted land airport)
Operates sunset to sunrise.

Airport Communications

CTAF: 122.9
  • APCH/DEP SVC PRVDD BY MINNEAPOLIS ARTCC ON FREQS 133.65/281.5 (RHINELANDER RCAG).

Nearby radio navigation aids

VOR radial/distance  VOR name  Freq  Var
RHIr105/23.2RHINELANDER VOR/DME109.2002E
IMTr245/38.5IRON MOUNTAIN VOR/DME111.2002W

Airport Services

Parking: tiedowns
Airframe service: NONE
Powerplant service: NONE
Bottled oxygen: NONE
Bulk oxygen: NONE

Runway Information

Runway 12/30

Dimensions: 3550 x 75 ft. / 1082 x 23 m
Surface: asphalt, in good condition
Weight bearing capacity: 
Single wheel: 12.0
Runway edge lights: medium intensity
RUNWAY 12  RUNWAY 30
Latitude: 45-31.542878N45-31.319537N
Longitude: 088-56.245392W088-55.477553W
Elevation: 1649.8 ft.1627.5 ft.
Traffic pattern: leftleft
Markings: nonprecision, in fair conditionnonprecision, in fair condition
Runway end identifier lights: nono
Touchdown point: yes, no lightsyes, no lights

Runway 1/19

Dimensions: 2742 x 100 ft. / 836 x 30 m
Surface: turf, in fair condition
Runway edge markings: RWY 01/19 MKD WITH YELLOW CONES.
RUNWAY 1  RUNWAY 19
Latitude: 45-31.041122N45-31.489450N
Longitude: 088-55.541145W088-55.469357W
Elevation: 1614.5 ft.1626.8 ft.
Traffic pattern: leftleft
Runway end identifier lights: nono
Touchdown point: yes, no lightsyes, no lights

Airport Ownership and Management from official FAA records

Ownership: Publicly-owned
Owner: CITY OF CRANDON
601 W. WASHINGTON ST, PO BOX 335
CRANDON, WI 54520
Phone 715-478-2400
Manager: NORMAN KNOLL
8765 MARY ST
ARGONNE, WI 54511
Phone 715-649-3225

Airport Operational Statistics

Aircraft based on the field: 9
Single engine airplanes: 9
    
Aircraft operations: avg 84/week *
45% transient general aviation
45% local general aviation
9% air taxi
* for 12-month period ending 20 August 2020

Additional Remarks

OCNL DEER ON & INVOF ARPT.
FOR CD CTC MINNEAPOLIS ARTCC AT 651-463-5588.

Instrument Procedures

NOTE: All procedures below are presented as PDF files. If you need a reader for these files, you should download the free Adobe Reader.

NOT FOR NAVIGATION. Please procure official charts for flight.
FAA instrument procedures published for use from 04 November 2021 at 0901Z to 02 December 2021 at 0900z.

 
IAPs - Instrument Approach Procedures
RNAV (GPS) RWY 12   download (223KB)
RNAV (GPS) RWY 30   download (232KB)
NOTE: Special Take-Off Minimums/Departure Procedures apply   download (293KB)

Other nearby airports with instrument procedures:

KAIG - Langlade County Airport (23 nm S)
KRHI - Rhinelander/Oneida County Airport (24 nm W)
KEGV - Eagle River Union Airport (28 nm NW)
KTKV - Tomahawk Regional Airport (37 nm W)
KRRL - Merrill Municipal Airport (38 nm SW)
 
Loc | Ops | Rwys | IFR | FBO | Links
Com | Nav | Svcs | Stats | Notes
Area around Y55 (Crandon/Steve Conway Municipal Airport)
 
Road maps at: MapQuest Bing Google
 
Aerial photo
WARNING: Photo may not be current or correct
Aerial photo of Y55 (Crandon/Steve Conway Municipal Airport)
Photo taken 23-Jul-2006
from a Mooney M20F, at an altitude of 1,500-2,000 AGL

Do you have a better or more recent aerial photo of Crandon/Steve Conway Municipal Airport that you would like to share? If so, please send us your photo.

 
Sectional chart

 
Airport distance calculator
Flying to Crandon/Steve Conway Municipal Airport? Find the distance to fly.

From to Y55

Sunrise and sunset
Times for 29-Nov-2021
 Local
(UTC-6)
 Zulu
(UTC)
Morning civil twilight06:4112:41
Sunrise07:1413:14
Sunset16:1422:14
Evening civil twilight16:4722:47

Current date and time
Zulu (UTC)  30-Nov-2021 03:48:44
Local (UTC-6)  29-Nov-2021 21:48:44
 
METAR
KRHI 
24nm W 
300313Z AUTO 00000KT 1/4SM FZFG VV002 M06/M07 A2976 RMK AO2 T10611072 $
KEGV 
28nm NW 
300335Z AUTO 00000KT 1 3/4SM BR OVC006 M04/M04 A2976 RMK AO2 VIS 3/4V5 T10421042
KAIG 
32nm S 
300335Z AUTO 03004KT 5SM BR OVC003 M04/M04 A2976 RMK AO2 T10361037
KTKV 
37nm W 
300335Z AUTO 00000KT 1SM BKN003 M05/M06 A2979 RMK AO2 T10551062 PWINO
KIMT 
38nm NE 
300328Z AUTO 00000KT 4SM -SN BR FEW008 BKN040 OVC065 M03/M04 A2977 RMK AO2 P0000 T10281044
KRRL 
38nm SW 
300335Z AUTO 00000KT 3SM BR CLR M04/M04 A2978 RMK AO2 T10361036 TSNO
KLNL 
40nm N 
300335Z AUTO 00000KT 10SM OVC010 M03/M03 A2978 RMK AO2 T10281031
KARV 
41nm NW 
300335Z AUTO 32003KT 1/4SM HZ BKN009 M06/M22 A2978 RMK AO2 T10591218
KAUW 
46nm SW 
300254Z AUTO 34003KT 7SM OVC007 M01/M03 A2976 RMK AO2 SLP094 60000 T10061028 50008 $
KEZS 
47nm S 
715-526-2967
300335Z AUTO 00000KT 5SM BR OVC049 01/00 A2978 RMK AO2 T00050002
TAF
KRHI 
24nm W 
300112Z 3001/3024 VRB03KT P6SM -SN SCT015 OVC035 TEMPO 3001/3002 2SM -SN BKN015 FM300200 31004KT P6SM SCT015 OVC040 TEMPO 3002/3006 4SM BR BKN015 FM301100 28006KT P6SM BKN012 WS020/31035KT FM301400 29008G19KT P6SM BKN015 FM301700 31011G21KT P6SM BKN020 FM301900 31009G18KT P6SM SCT200
NOTAMs
Click for the latest NOTAMs
NOTAMs are issued by the DoD/FAA and will open in a separate window not controlled by AirNav.

 

 
 

Would you like to see your business listed on this page?

 If your business provides an interesting product or service to pilots, flight crews, aircraft, or users of the Crandon/Steve Conway Municipal Airport, you should consider listing it here.  To start the listing process, click on the button below
 
Add a business
 

Other Pages about Crandon/Steve Conway Municipal Airport

Page from the Wisconsin airport directory (PDF)
 
Update a link
 
Copyright © AirNav, LLC. All rights reserved. Privacy Policy  Contact